createdAt,value
2018-01-25T00:06:47.888Z,1002.03
2018-01-25T00:16:47.878Z,1002.4
2018-01-25T00:26:47.889Z,1002.61
2018-01-25T00:36:47.862Z,1002.53
2018-01-25T00:46:47.810Z,1002.59
2018-01-25T00:56:47.887Z,1002.66
2018-01-25T01:06:47.840Z,1002.73
2018-01-25T01:16:47.936Z,1002.73
2018-01-25T01:26:47.869Z,1002.83
2018-01-25T01:36:47.954Z,1002.91
2018-01-25T01:46:47.878Z,1003.09
2018-01-25T01:56:47.939Z,1003.04
2018-01-25T02:06:47.903Z,1003.06
2018-01-25T02:16:47.990Z,1003.24
2018-01-25T02:26:47.934Z,1003.34
2018-01-25T02:36:47.894Z,1003.58
2018-01-25T02:46:47.968Z,1003.52
2018-01-25T02:56:47.926Z,1003.63
2018-01-25T03:06:47.977Z,1003.78
2018-01-25T03:16:47.938Z,1003.94
2018-01-25T03:26:48.001Z,1004.03
2018-01-25T03:36:47.971Z,1004.2
2018-01-25T03:46:48.035Z,1004.19
2018-01-25T03:56:47.981Z,1004.21
2018-01-25T04:06:48.064Z,1004.24
2018-01-25T04:16:48.032Z,1004.36
2018-01-25T04:26:48.086Z,1004.56
2018-01-25T04:36:48.070Z,1004.61
2018-01-25T04:46:48.112Z,1004.44
2018-01-25T04:56:48.051Z,1004.41
2018-01-25T05:06:48.016Z,1004.5
2018-01-25T05:16:48.070Z,1004.64
2018-01-25T05:26:48.027Z,1004.65
2018-01-25T05:36:48.128Z,1004.54
2018-01-25T05:46:48.099Z,1004.68
2018-01-25T05:56:48.163Z,1004.67
2018-01-25T06:06:48.117Z,1004.73
2018-01-25T06:16:48.135Z,1004.88
2018-01-25T06:26:48.123Z,1004.91
2018-01-25T06:36:48.184Z,1004.86
2018-01-25T06:46:48.131Z,1004.95
2018-01-25T06:56:48.213Z,1004.91
2018-01-25T07:06:48.157Z,1004.96
2018-01-25T07:16:48.228Z,1005.07
2018-01-25T07:26:48.202Z,1005.15
2018-01-25T07:36:50.567Z,1005.09
2018-01-25T07:46:48.229Z,1005.09
2018-01-25T07:56:48.186Z,1005.05
2018-01-25T08:06:48.227Z,1005.11
2018-01-25T08:16:48.189Z,1005
2018-01-25T08:26:48.273Z,1004.99
2018-01-25T08:36:48.281Z,1004.97
2018-01-25T08:46:48.310Z,1005.04
2018-01-25T08:56:48.257Z,1005.16
2018-01-25T09:06:48.314Z,1005.34
2018-01-25T09:16:48.260Z,1005.26
2018-01-25T09:26:48.347Z,1005.27
2018-01-25T09:36:48.277Z,1005.2
2018-01-25T09:46:48.363Z,1005.21
2018-01-25T09:56:48.371Z,1005.27
2018-01-25T10:06:48.319Z,1005.47
2018-01-25T10:16:48.357Z,1005.59
2018-01-25T10:26:48.394Z,1005.51
2018-01-25T10:36:48.352Z,1005.4
2018-01-25T10:46:48.328Z,1005.44
2018-01-25T10:56:48.376Z,1005.33
2018-01-25T11:06:48.649Z,1005.17
2018-01-25T11:16:48.389Z,1005.05
2018-01-25T11:26:48.449Z,1005.06
2018-01-25T11:36:48.335Z,1005.02
2018-01-25T11:46:48.615Z,1005.04
2018-01-25T11:56:48.605Z,1005
2018-01-25T12:06:48.567Z,1004.81
2018-01-25T12:16:48.524Z,1004.82
2018-01-25T12:26:48.498Z,1004.92
2018-01-25T12:36:48.484Z,1004.79
2018-01-25T12:46:48.502Z,1004.65
2018-01-25T12:56:48.576Z,1004.51
2018-01-25T13:06:48.475Z,1004.5
2018-01-25T13:16:48.538Z,1004.37
2018-01-25T13:26:48.494Z,1004.33
2018-01-25T13:36:48.549Z,1004.2
2018-01-25T13:46:48.558Z,1003.98
2018-01-25T13:56:48.573Z,1003.9
2018-01-25T14:06:48.548Z,1004.09
2018-01-25T14:16:48.593Z,1003.99
2018-01-25T14:26:48.556Z,1004.04
2018-01-25T14:36:48.656Z,1004.13
2018-01-25T14:46:48.706Z,1004.11
2018-01-25T14:56:48.630Z,1004.03
2018-01-25T15:06:48.602Z,1004.06
2018-01-25T15:16:48.570Z,1004.32
2018-01-25T15:26:48.575Z,1004.27
2018-01-25T15:36:48.607Z,1004.1
2018-01-25T15:46:48.684Z,1004.07
2018-01-25T15:56:48.631Z,1004.01
2018-01-25T16:06:48.681Z,1004.12
2018-01-25T16:16:48.627Z,1004.15
2018-01-25T16:26:48.691Z,1004.14
2018-01-25T16:36:48.644Z,1004.19
2018-01-25T16:46:48.726Z,1004.19
2018-01-25T16:56:48.685Z,1004.08
2018-01-25T17:06:48.743Z,1004.09
2018-01-25T17:16:48.712Z,1004.11
2018-01-25T17:26:48.767Z,1004.17
2018-01-25T17:36:48.750Z,1004.21
2018-01-25T17:46:48.806Z,1004.27
2018-01-25T17:56:48.782Z,1004.28
2018-01-25T18:06:48.688Z,1004.32
2018-01-25T18:16:48.769Z,1004.4
2018-01-25T18:26:48.732Z,1004.3
2018-01-25T18:36:48.796Z,1004.53
2018-01-25T18:46:48.779Z,1004.59
2018-01-25T18:56:48.836Z,1004.64
2018-01-25T19:06:48.820Z,1004.76
2018-01-25T19:16:48.853Z,1004.76
2018-01-25T19:26:48.819Z,1004.86
2018-01-25T19:36:48.925Z,1004.86
2018-01-25T19:46:48.945Z,1004.81
2018-01-25T19:56:49.455Z,1004.7
2018-01-25T20:06:49.671Z,1004.73
2018-01-25T20:16:49.260Z,1004.69
2018-01-25T20:26:48.919Z,1004.84
2018-01-25T20:36:48.969Z,1004.92
2018-01-25T20:46:49.736Z,1004.9
2018-01-25T20:56:48.933Z,1005.08
2018-01-25T21:06:48.933Z,1005.02
2018-01-25T21:16:48.902Z,1005.04
2018-01-25T21:26:48.973Z,1005.14
2018-01-25T21:36:48.981Z,1005.29
2018-01-25T21:46:49.047Z,1005.47
2018-01-25T21:56:48.970Z,1005.3
2018-01-25T22:06:49.031Z,1005.26
2018-01-25T22:16:48.990Z,1005.39
2018-01-25T22:28:17.182Z,1005.44
2018-01-25T22:38:17.364Z,1005.4
2018-01-25T22:48:17.236Z,1005.41
2018-01-25T22:58:17.408Z,1005.41
2018-01-25T23:08:17.264Z,1005.47
2018-01-25T23:18:17.321Z,1005.44
2018-01-25T23:28:17.288Z,1005.56
2018-01-25T23:38:17.314Z,1005.54
2018-01-25T23:48:17.279Z,1005.65
2018-01-25T23:58:17.371Z,1005.66
